createdAt,value
2018-03-15T00:01:55.727Z,10.85
2018-03-15T00:04:23.716Z,11.36
2018-03-15T00:06:51.669Z,11.57
2018-03-15T00:09:19.635Z,11.60
2018-03-15T00:11:47.590Z,11.74
2018-03-15T00:14:15.525Z,11.33
2018-03-15T00:16:43.400Z,11.79
2018-03-15T00:19:11.313Z,11.85
2018-03-15T00:21:39.258Z,12.05
2018-03-15T00:24:07.231Z,12.18
2018-03-15T00:26:35.218Z,12.07
2018-03-15T00:29:03.185Z,10.66
2018-03-15T00:31:31.141Z,10.74
2018-03-15T00:33:59.086Z,10.58
2018-03-15T00:36:27.120Z,11.26
2018-03-15T00:38:55.077Z,11.79
2018-03-15T00:41:23.031Z,12.06
2018-03-15T00:43:51.002Z,12.18
2018-03-15T00:46:19.123Z,12.20
2018-03-15T00:48:47.108Z,12.05
2018-03-15T00:51:15.010Z,12.15
2018-03-15T00:53:42.938Z,12.01
2018-03-15T00:56:10.902Z,11.91
2018-03-15T00:58:38.817Z,11.33
2018-03-15T01:01:06.742Z,11.23
2018-03-15T01:03:34.714Z,10.61
2018-03-15T01:06:02.655Z,10.66
2018-03-15T01:08:30.509Z,10.33
2018-03-15T01:10:58.448Z,10.14
2018-03-15T01:13:26.325Z,9.77
2018-03-15T01:15:54.240Z,9.81
2018-03-15T01:18:22.272Z,10.07
2018-03-15T01:20:50.318Z,10.35
2018-03-15T01:23:18.207Z,10.47
2018-03-15T01:25:46.186Z,10.16
2018-03-15T01:28:14.122Z,11.01
2018-03-15T01:30:42.082Z,11.20
2018-03-15T01:33:10.010Z,10.99
2018-03-15T01:35:37.840Z,10.84
2018-03-15T01:38:05.768Z,11.13
2018-03-15T01:40:33.737Z,10.63
2018-03-15T01:43:01.624Z,10.89
2018-03-15T01:45:29.577Z,10.71
2018-03-15T01:47:57.815Z,10.68
2018-03-15T01:50:25.750Z,10.71
2018-03-15T01:52:53.810Z,10.23
2018-03-15T01:55:21.725Z,10.53
2018-03-15T01:57:49.690Z,10.67
2018-03-15T02:00:17.659Z,10.88
2018-03-15T02:02:45.605Z,10.81
2018-03-15T02:05:13.494Z,11.20
2018-03-15T02:07:41.432Z,11.18
2018-03-15T02:10:09.389Z,11.31
2018-03-15T02:12:37.334Z,11.32
2018-03-15T02:15:05.309Z,11.36
2018-03-15T02:17:33.246Z,11.39
2018-03-15T02:20:01.182Z,11.29
2018-03-15T02:22:29.101Z,11.06
2018-03-15T02:24:56.949Z,11.31
2018-03-15T02:27:24.933Z,11.39
2018-03-15T02:29:52.862Z,11.38
2018-03-15T02:32:20.843Z,11.38
2018-03-15T02:34:48.807Z,11.26
2018-03-15T02:37:16.779Z,11.22
2018-03-15T02:39:44.727Z,11.21
2018-03-15T02:42:12.676Z,11.27
2018-03-15T02:44:40.556Z,11.37
2018-03-15T02:47:08.509Z,11.33
2018-03-15T02:49:37.072Z,11.49
2018-03-15T02:52:05.037Z,11.56
2018-03-15T02:54:32.993Z,11.58
2018-03-15T02:57:00.917Z,11.37
2018-03-15T02:59:28.943Z,11.42
2018-03-15T03:01:56.888Z,11.33
2018-03-15T03:04:24.810Z,11.26
2018-03-15T03:06:52.732Z,11.29
2018-03-15T03:09:20.684Z,11.20
2018-03-15T03:11:48.629Z,11.23
2018-03-15T03:14:16.570Z,11.14
2018-03-15T03:16:44.534Z,11.07
2018-03-15T03:19:12.514Z,11.01
2018-03-15T03:21:40.444Z,10.93
2018-03-15T03:24:08.437Z,10.60
2018-03-15T03:26:36.355Z,10.66
2018-03-15T03:29:04.295Z,10.42
2018-03-15T03:31:32.339Z,10.61
2018-03-15T03:34:00.285Z,10.77
2018-03-15T03:36:28.335Z,10.02
2018-03-15T03:38:56.363Z,10.07
2018-03-15T03:41:24.340Z,10.15
2018-03-15T03:43:52.253Z,10.01
2018-03-15T03:46:20.143Z,10.29
2018-03-15T03:48:48.168Z,10.38
2018-03-15T03:51:16.331Z,10.02
2018-03-15T03:53:44.304Z,9.83
2018-03-15T03:56:12.259Z,9.74
2018-03-15T03:58:40.237Z,9.68
2018-03-15T04:01:08.189Z,9.62
2018-03-15T04:03:36.167Z,9.65
2018-03-15T04:06:04.119Z,9.66
2018-03-15T04:08:32.081Z,9.61
2018-03-15T04:10:59.998Z,9.40
2018-03-15T04:13:27.957Z,9.50
2018-03-15T04:15:55.881Z,9.31
2018-03-15T04:18:23.849Z,9.44
2018-03-15T04:20:51.814Z,9.00
2018-03-15T04:23:19.789Z,8.57
2018-03-15T04:25:47.666Z,8.97
2018-03-15T04:28:15.614Z,9.01
2018-03-15T04:30:43.531Z,8.82
2018-03-15T04:33:11.491Z,8.82
2018-03-15T04:35:39.479Z,9.08
2018-03-15T04:38:07.492Z,8.38
2018-03-15T04:40:35.388Z,8.73
2018-03-15T04:43:03.409Z,8.63
2018-03-15T04:45:31.354Z,8.79
2018-03-15T04:47:59.295Z,9.00
2018-03-15T04:50:27.303Z,9.12
2018-03-15T04:52:55.451Z,9.09
2018-03-15T04:55:23.404Z,9.08
2018-03-15T04:57:51.294Z,8.94
2018-03-15T05:00:19.264Z,8.96
2018-03-15T05:02:47.163Z,8.88
2018-03-15T05:05:15.115Z,9.14
2018-03-15T05:07:43.079Z,9.06
2018-03-15T05:10:11.056Z,8.93
2018-03-15T05:12:38.981Z,8.97
2018-03-15T05:15:06.926Z,8.94
2018-03-15T05:17:34.869Z,8.91
2018-03-15T05:20:02.821Z,8.97
2018-03-15T05:22:30.770Z,8.70
2018-03-15T05:24:58.786Z,8.54
2018-03-15T05:27:26.749Z,8.68
2018-03-15T05:29:54.741Z,8.69
2018-03-15T05:32:22.728Z,8.99
2018-03-15T05:34:50.679Z,8.94
2018-03-15T05:37:18.681Z,9.22
2018-03-15T05:39:46.706Z,9.52
2018-03-15T05:42:14.729Z,9.84
2018-03-15T05:44:42.618Z,9.62
2018-03-15T05:47:10.572Z,9.77
2018-03-15T05:49:38.500Z,10.17
2018-03-15T05:52:06.897Z,9.92
2018-03-15T05:54:35.221Z,9.75
2018-03-15T05:57:03.125Z,9.91
2018-03-15T05:59:31.041Z,10.45
2018-03-15T06:01:58.999Z,10.28
2018-03-15T06:04:26.928Z,10.78
2018-03-15T06:06:54.927Z,11.41
2018-03-15T06:09:23.105Z,11.41
2018-03-15T06:11:51.133Z,11.03
2018-03-15T06:14:19.102Z,11.15
2018-03-15T06:16:47.019Z,12.10
2018-03-15T06:19:14.968Z,12.98
2018-03-15T06:21:42.968Z,12.56
2018-03-15T06:24:10.929Z,11.69
2018-03-15T06:26:38.903Z,11.70
2018-03-15T06:29:06.866Z,12.09
2018-03-15T06:31:34.833Z,11.92
2018-03-15T06:34:02.852Z,12.53
2018-03-15T06:36:30.777Z,12.69
2018-03-15T06:38:58.741Z,13.18
2018-03-15T06:41:26.721Z,13.75
2018-03-15T06:43:54.759Z,13.87
2018-03-15T06:46:22.699Z,14.05
2018-03-15T06:48:50.646Z,13.99
2018-03-15T06:51:18.644Z,14.52
2018-03-15T06:53:46.574Z,13.93
2018-03-15T06:56:14.983Z,14.45
2018-03-15T06:58:42.954Z,14.04
2018-03-15T07:01:10.954Z,14.51
2018-03-15T07:03:38.925Z,15.00
2018-03-15T07:06:06.821Z,15.96
2018-03-15T07:08:34.756Z,16.17
2018-03-15T07:11:02.722Z,17.03
2018-03-15T07:13:30.672Z,16.35
2018-03-15T07:15:58.632Z,17.43
2018-03-15T07:18:26.557Z,17.77
2018-03-15T07:20:54.558Z,17.50
2018-03-15T07:23:22.504Z,17.62
2018-03-15T07:25:50.417Z,17.65
2018-03-15T07:28:18.429Z,18.87
2018-03-15T07:30:46.333Z,18.50
2018-03-15T07:33:14.329Z,18.36
2018-03-15T07:35:42.293Z,19.08
2018-03-15T07:38:10.319Z,18.48
2018-03-15T07:40:38.272Z,19.20
2018-03-15T07:43:06.264Z,19.05
2018-03-15T07:45:34.198Z,19.22
2018-03-15T07:48:02.157Z,18.84
2018-03-15T07:50:30.069Z,19.77
2018-03-15T07:52:58.075Z,18.54
2018-03-15T07:55:26.030Z,18.15
2018-03-15T07:57:54.430Z,18.98
2018-03-15T08:00:22.334Z,20.19
2018-03-15T08:02:50.284Z,20.30
2018-03-15T08:05:18.255Z,19.70
2018-03-15T08:07:46.212Z,20.06
2018-03-15T08:10:14.151Z,20.72
2018-03-15T08:12:42.116Z,20.17
2018-03-15T08:15:09.992Z,20.17
2018-03-15T08:17:37.926Z,21.17
2018-03-15T08:20:05.868Z,19.68
2018-03-15T08:22:33.837Z,19.09
2018-03-15T08:25:01.751Z,19.60
2018-03-15T08:27:29.665Z,20.55
2018-03-15T08:29:57.619Z,20.58
2018-03-15T08:32:25.571Z,22.12
2018-03-15T08:34:53.556Z,22.49
2018-03-15T08:37:21.551Z,21.40
2018-03-15T08:39:49.563Z,21.69
2018-03-15T08:42:17.476Z,21.39
2018-03-15T08:44:45.426Z,22.31
2018-03-15T08:47:13.337Z,22.12
2018-03-15T08:49:41.375Z,23.18
2018-03-15T08:52:09.348Z,23.28
2018-03-15T08:54:37.359Z,22.57
2018-03-15T08:57:05.353Z,22.64
2018-03-15T08:59:33.832Z,24.00
2018-03-15T09:02:01.781Z,24.94
2018-03-15T09:04:29.732Z,24.28
2018-03-15T09:06:57.753Z,24.55
2018-03-15T09:09:25.855Z,25.04
2018-03-15T09:11:53.777Z,23.92
2018-03-15T09:14:21.698Z,24.51
2018-03-15T09:16:49.654Z,25.58
2018-03-15T09:19:17.625Z,24.79
2018-03-15T09:21:45.604Z,25.79
2018-03-15T09:24:13.561Z,24.91
2018-03-15T09:26:41.560Z,23.49
2018-03-15T09:29:09.517Z,23.78
2018-03-15T09:31:37.576Z,23.62
2018-03-15T09:34:05.624Z,23.88
2018-03-15T09:36:33.607Z,24.13
2018-03-15T09:39:01.614Z,23.38
2018-03-15T09:41:29.684Z,23.22
2018-03-15T09:43:57.704Z,23.26
2018-03-15T09:46:25.744Z,22.53
2018-03-15T09:48:53.661Z,22.69
2018-03-15T09:51:21.631Z,21.71
2018-03-15T09:53:49.575Z,20.02
2018-03-15T09:56:17.645Z,20.36
2018-03-15T09:58:45.636Z,22.52
2018-03-15T10:01:13.775Z,24.55
2018-03-15T10:03:41.727Z,24.60
2018-03-15T10:06:09.645Z,22.89
2018-03-15T10:08:37.621Z,21.98
2018-03-15T10:11:05.602Z,21.14
2018-03-15T10:13:33.608Z,19.92
2018-03-15T10:16:01.562Z,19.65
2018-03-15T10:18:29.573Z,19.66
2018-03-15T10:20:57.505Z,20.20
2018-03-15T10:23:25.469Z,21.13
2018-03-15T10:25:53.481Z,21.33
2018-03-15T10:28:21.495Z,22.14
2018-03-15T10:30:49.474Z,23.85
2018-03-15T10:33:23.034Z,24.74
2018-03-15T10:35:51.014Z,24.81
2018-03-15T10:38:18.991Z,23.46
2018-03-15T10:40:46.963Z,22.18
2018-03-15T10:43:14.943Z,22.10
2018-03-15T10:45:42.937Z,21.96
2018-03-15T10:48:10.878Z,22.16
2018-03-15T10:50:38.891Z,21.72
2018-03-15T10:53:06.887Z,21.51
2018-03-15T10:55:34.852Z,22.04
2018-03-15T10:58:02.762Z,21.63
2018-03-15T11:00:36.495Z,21.79
2018-03-15T11:03:10.413Z,21.89
2018-03-15T11:05:43.946Z,21.87
2018-03-15T11:08:17.486Z,21.25
2018-03-15T11:10:45.801Z,20.92
2018-03-15T11:13:13.781Z,21.06
2018-03-15T11:15:41.761Z,21.73
2018-03-15T11:18:09.761Z,21.37
2018-03-15T11:20:37.735Z,20.32
2018-03-15T11:23:05.772Z,20.81
2018-03-15T11:25:33.773Z,19.99
2018-03-15T11:28:01.895Z,19.16
2018-03-15T11:30:29.890Z,19.92
2018-03-15T11:32:57.858Z,20.00
2018-03-15T11:35:25.872Z,20.17
2018-03-15T11:37:53.964Z,21.66
2018-03-15T11:40:22.013Z,23.20
2018-03-15T11:42:50.065Z,24.22
2018-03-15T11:45:18.078Z,25.09
2018-03-15T11:47:46.085Z,24.92
2018-03-15T11:50:14.134Z,25.89
2018-03-15T11:52:42.113Z,25.29
2018-03-15T11:55:10.722Z,25.99
2018-03-15T11:57:38.717Z,24.67
2018-03-15T12:00:06.754Z,22.05
2018-03-15T12:02:34.692Z,22.84
2018-03-15T12:05:03.097Z,23.64
2018-03-15T12:07:31.048Z,24.36
2018-03-15T12:09:59.032Z,24.54
2018-03-15T12:12:26.963Z,24.65
2018-03-15T12:14:54.956Z,24.61
2018-03-15T12:17:22.985Z,22.89
2018-03-15T12:19:50.951Z,23.24
2018-03-15T12:22:18.929Z,23.64
2018-03-15T12:24:46.960Z,24.26
2018-03-15T12:27:14.920Z,24.13
2018-03-15T12:29:42.846Z,24.70
2018-03-15T12:32:10.759Z,24.75
2018-03-15T12:34:38.687Z,25.07
2018-03-15T12:37:06.621Z,25.46
2018-03-15T12:39:34.606Z,24.92
2018-03-15T12:42:02.564Z,24.71
2018-03-15T12:44:30.532Z,22.90
2018-03-15T12:46:58.501Z,21.71
2018-03-15T12:49:26.478Z,22.49
2018-03-15T12:51:54.631Z,21.55
2018-03-15T12:54:22.575Z,22.23
2018-03-15T12:56:50.522Z,21.72
2018-03-15T12:59:18.525Z,22.12
2018-03-15T13:01:46.465Z,22.35
2018-03-15T13:04:14.389Z,22.20
2018-03-15T13:06:42.489Z,22.63
2018-03-15T13:09:10.424Z,23.56
2018-03-15T13:11:38.390Z,22.32
2018-03-15T13:14:06.354Z,21.47
2018-03-15T13:16:34.251Z,22.74
2018-03-15T13:19:02.330Z,21.78
2018-03-15T13:21:30.309Z,21.58
2018-03-15T13:23:58.221Z,23.04
2018-03-15T13:26:26.206Z,22.51
2018-03-15T13:28:54.163Z,22.72
2018-03-15T13:31:22.145Z,23.43
2018-03-15T13:33:50.070Z,22.98
2018-03-15T13:36:18.028Z,23.11
2018-03-15T13:38:45.998Z,23.41
2018-03-15T13:41:13.930Z,22.43
2018-03-15T13:43:41.916Z,22.75
2018-03-15T13:46:09.862Z,23.56
2018-03-15T13:48:37.857Z,23.79
2018-03-15T13:51:05.865Z,22.35
2018-03-15T13:53:33.875Z,21.45
2018-03-15T13:56:01.805Z,20.17
2018-03-15T13:58:29.800Z,21.12
2018-03-15T14:00:57.709Z,20.93
2018-03-15T14:03:25.753Z,21.92
2018-03-15T14:05:53.842Z,21.26
2018-03-15T14:08:22.213Z,19.42
2018-03-15T14:10:50.178Z,19.06
2018-03-15T14:13:18.668Z,19.17
2018-03-15T14:15:47.053Z,20.14
2018-03-15T14:18:15.830Z,18.47
2018-03-15T14:20:44.309Z,18.92
2018-03-15T14:23:13.015Z,20.13
2018-03-15T14:25:41.165Z,20.24
2018-03-15T14:28:09.649Z,21.38
2018-03-15T14:30:38.114Z,20.82
2018-03-15T14:33:06.709Z,20.52
2018-03-15T14:35:34.990Z,20.99
2018-03-15T14:38:03.677Z,21.23
2018-03-15T14:40:32.154Z,20.73
2018-03-15T14:43:00.527Z,20.30
2018-03-15T14:45:28.893Z,20.71
2018-03-15T14:47:57.081Z,20.61
2018-03-15T14:50:25.526Z,19.98
2018-03-15T14:52:53.920Z,19.45
2018-03-15T14:55:22.306Z,19.79
2018-03-15T14:57:50.601Z,19.59
2018-03-15T15:00:18.766Z,19.41
2018-03-15T15:02:47.409Z,19.94
2018-03-15T15:05:15.522Z,19.40
2018-03-15T15:07:43.694Z,18.72
2018-03-15T15:10:12.490Z,18.66
2018-03-15T15:12:40.477Z,19.40
2018-03-15T15:15:08.464Z,18.39
2018-03-15T15:17:36.904Z,17.88
2018-03-15T15:20:05.280Z,17.27
2018-03-15T15:22:33.663Z,17.34
2018-03-15T15:25:01.662Z,17.07
2018-03-15T15:27:29.646Z,17.02
2018-03-15T15:29:57.618Z,17.13
2018-03-15T15:32:25.557Z,16.89
2018-03-15T15:34:54.016Z,16.69
2018-03-15T15:37:22.009Z,16.29
2018-03-15T15:39:49.933Z,16.27
2018-03-15T15:42:17.879Z,16.31
2018-03-15T15:44:45.876Z,16.08
2018-03-15T15:47:13.912Z,16.35
2018-03-15T15:49:41.914Z,15.71
2018-03-15T15:52:09.917Z,15.62
2018-03-15T15:54:37.946Z,15.89
2018-03-15T15:57:05.952Z,15.87
2018-03-15T15:59:33.945Z,15.67
2018-03-15T16:02:01.877Z,15.46
2018-03-15T16:04:29.780Z,15.22
2018-03-15T16:06:57.763Z,15.39
2018-03-15T16:09:25.726Z,15.32
2018-03-15T16:11:54.048Z,15.19
2018-03-15T16:14:22.045Z,15.55
2018-03-15T16:16:49.950Z,15.36
2018-03-15T16:19:19.271Z,15.23
2018-03-15T16:21:47.270Z,15.19
2018-03-15T16:24:15.290Z,15.24
2018-03-15T16:26:43.233Z,15.20
2018-03-15T16:29:11.244Z,14.91
2018-03-15T16:31:39.256Z,15.04
2018-03-15T16:34:07.305Z,14.94
2018-03-15T16:36:35.221Z,15.16
2018-03-15T16:39:03.310Z,15.39
2018-03-15T16:41:31.336Z,15.11
2018-03-15T16:43:59.316Z,15.14
2018-03-15T16:46:27.260Z,15.00
2018-03-15T16:48:55.288Z,14.79
2018-03-15T16:51:23.248Z,14.83
2018-03-15T16:53:51.245Z,15.29
2018-03-15T16:56:19.221Z,14.74
2018-03-15T16:58:47.167Z,14.61
2018-03-15T17:01:15.174Z,14.72
2018-03-15T17:03:43.179Z,15.03
2018-03-15T17:06:11.145Z,14.69
2018-03-15T17:08:39.115Z,14.74
2018-03-15T17:11:07.065Z,14.72
2018-03-15T17:13:35.297Z,14.92
2018-03-15T17:16:03.385Z,14.94
2018-03-15T17:18:31.362Z,14.84
2018-03-15T17:20:59.309Z,14.99
2018-03-15T17:23:27.289Z,14.62
2018-03-15T17:25:55.248Z,14.44
2018-03-15T17:28:23.234Z,14.47
2018-03-15T17:30:51.217Z,14.71
2018-03-15T17:33:19.166Z,14.52
2018-03-15T17:35:47.141Z,14.92
2018-03-15T17:38:15.052Z,15.16
2018-03-15T17:40:43.013Z,14.68
2018-03-15T17:43:11.110Z,15.24
2018-03-15T17:45:39.387Z,14.37
2018-03-15T17:48:08.174Z,13.78
2018-03-15T17:50:36.457Z,14.53
2018-03-15T17:53:04.841Z,14.56
2018-03-15T17:55:33.102Z,14.98
2018-03-15T17:58:01.606Z,15.04
2018-03-15T18:00:30.017Z,15.20
2018-03-15T18:02:59.482Z,15.17
2018-03-15T18:05:27.446Z,15.06
2018-03-15T18:07:55.438Z,15.03
2018-03-15T18:10:23.345Z,15.19
2018-03-15T18:12:51.367Z,15.19
2018-03-15T18:15:19.629Z,15.28
2018-03-15T18:17:47.683Z,15.36
2018-03-15T18:20:15.673Z,15.13
2018-03-15T18:22:43.677Z,14.74
2018-03-15T18:25:11.661Z,14.37
2018-03-15T18:27:40.095Z,14.63
2018-03-15T18:30:08.466Z,14.67
2018-03-15T18:32:37.046Z,14.60
2018-03-15T18:35:06.456Z,13.80
2018-03-15T18:37:35.132Z,13.33
2018-03-15T18:40:03.408Z,13.15
2018-03-15T18:42:31.685Z,13.81
2018-03-15T18:45:00.014Z,14.39
2018-03-15T18:47:28.478Z,14.37
2018-03-15T18:49:56.909Z,14.20
2018-03-15T18:52:25.189Z,14.19
2018-03-15T18:54:53.678Z,14.58
2018-03-15T18:57:22.059Z,14.33
2018-03-15T18:59:50.637Z,13.62
2018-03-15T19:02:19.120Z,14.23
2018-03-15T19:04:47.494Z,14.17
2018-03-15T19:07:15.670Z,14.13
2018-03-15T19:09:43.933Z,14.26
2018-03-15T19:12:12.376Z,13.93
2018-03-15T19:14:40.696Z,13.61
2018-03-15T19:17:09.421Z,13.49
2018-03-15T19:19:37.549Z,13.50
2018-03-15T19:22:05.933Z,13.05
2018-03-15T19:24:34.520Z,12.92
2018-03-15T19:27:04.016Z,12.81
2018-03-15T19:29:32.916Z,13.31
2018-03-15T19:32:01.083Z,13.66
2018-03-15T19:34:29.873Z,13.94
2018-03-15T19:36:58.558Z,13.71
2018-03-15T19:39:27.204Z,13.16
2018-03-15T19:41:55.536Z,13.75
2018-03-15T19:44:24.101Z,13.78
2018-03-15T19:46:52.885Z,13.73
2018-03-15T19:49:21.059Z,13.49
2018-03-15T19:51:49.540Z,13.61
2018-03-15T19:54:18.226Z,12.91
2018-03-15T19:56:46.675Z,13.09
2018-03-15T19:59:15.242Z,13.06
2018-03-15T20:01:43.768Z,13.46
2018-03-15T20:04:11.946Z,13.11
2018-03-15T20:06:40.427Z,12.39
2018-03-15T20:09:09.213Z,11.73
2018-03-15T20:11:37.442Z,12.45
2018-03-15T20:14:06.283Z,11.74
2018-03-15T20:16:34.809Z,12.47
2018-03-15T20:22:04.191Z,11.86
2018-03-15T20:24:33.221Z,12.18
2018-03-15T20:27:01.448Z,12.49
2018-03-15T20:29:30.023Z,12.78
2018-03-15T20:31:58.462Z,12.96
2018-03-15T20:34:27.198Z,12.99
2018-03-15T20:36:55.778Z,12.83
2018-03-15T20:39:29.977Z,11.85
2018-03-15T20:41:58.372Z,12.41
2018-03-15T20:44:26.746Z,12.71
2018-03-15T20:47:00.579Z,12.20
2018-03-15T20:49:29.451Z,12.19
2018-03-15T20:51:58.130Z,12.62
2018-03-15T20:54:26.409Z,12.75
2018-03-15T20:56:54.766Z,12.01
2018-03-15T20:59:23.066Z,12.35
2018-03-15T21:01:51.755Z,12.45
2018-03-15T21:04:19.933Z,11.66
2018-03-15T21:06:48.488Z,11.87
2018-03-15T21:09:16.922Z,12.11
2018-03-15T21:11:45.153Z,12.45
2018-03-15T21:14:13.444Z,11.88
2018-03-15T21:16:41.909Z,11.57
2018-03-15T21:19:10.117Z,11.67
2018-03-15T21:21:38.577Z,11.25
2018-03-15T21:24:07.049Z,10.98
2018-03-15T21:26:35.313Z,11.41
2018-03-15T21:29:03.697Z,11.41
2018-03-15T21:31:32.381Z,11.15
2018-03-15T21:34:00.674Z,11.59
2018-03-15T21:36:29.141Z,11.89
2018-03-15T21:38:57.933Z,12.09
2018-03-15T21:41:26.594Z,11.90
2018-03-15T21:43:54.853Z,11.76
2018-03-15T21:46:23.012Z,11.46
2018-03-15T21:48:51.241Z,11.44
2018-03-15T21:51:19.713Z,11.15
2018-03-15T21:53:48.295Z,11.60
2018-03-15T21:56:16.574Z,11.58
2018-03-15T21:58:44.831Z,11.01
2018-03-15T22:01:13.448Z,11.31
2018-03-15T22:03:42.018Z,11.60
2018-03-15T22:06:10.287Z,11.71
2018-03-15T22:08:38.764Z,11.87
2018-03-15T22:11:06.921Z,11.84
2018-03-15T22:13:35.425Z,11.93
2018-03-15T22:16:03.742Z,11.97
2018-03-15T22:18:31.855Z,12.03
2018-03-15T22:21:00.554Z,11.98
2018-03-15T22:23:29.028Z,11.88
2018-03-15T22:25:57.511Z,11.98
2018-03-15T22:28:25.881Z,11.82
2018-03-15T22:30:57.964Z,11.71
2018-03-15T22:33:26.437Z,11.85
2018-03-15T22:35:54.813Z,11.98
2018-03-15T22:38:23.128Z,11.69
2018-03-15T22:40:51.569Z,11.51
2018-03-15T22:43:20.270Z,11.59
2018-03-15T22:45:48.631Z,11.62
2018-03-15T22:48:16.810Z,11.66
2018-03-15T22:50:45.189Z,11.69
2018-03-15T22:53:13.640Z,10.99
2018-03-15T22:55:41.950Z,11.24
2018-03-15T22:58:10.218Z,11.41
2018-03-15T23:00:38.801Z,11.44
2018-03-15T23:03:07.276Z,11.42
2018-03-15T23:05:35.656Z,11.40
2018-03-15T23:08:04.350Z,11.18
2018-03-15T23:10:33.029Z,10.52
2018-03-15T23:13:01.512Z,10.28
2018-03-15T23:15:30.301Z,10.85
2018-03-15T23:17:58.783Z,11.13
2018-03-15T23:20:27.459Z,11.22
2018-03-15T23:22:55.848Z,11.41
2018-03-15T23:25:24.933Z,11.28
2018-03-15T23:27:53.315Z,11.29
2018-03-15T23:30:21.779Z,11.29
2018-03-15T23:32:50.267Z,11.17
2018-03-15T23:35:18.860Z,11.13
2018-03-15T23:37:47.336Z,11.28
2018-03-15T23:40:16.007Z,11.32
2018-03-15T23:42:44.396Z,11.14
2018-03-15T23:45:12.779Z,11.21
2018-03-15T23:47:41.260Z,11.21
2018-03-15T23:50:09.838Z,11.27
2018-03-15T23:52:38.207Z,11.23
2018-03-15T23:55:06.812Z,11.13
2018-03-15T23:57:35.433Z,10.57
